createdAt,value
2022-08-05T00:01:20.508Z,95652.19
2022-08-05T00:04:14.088Z,95656.94
2022-08-05T00:07:00.489Z,95649.44
2022-08-05T00:10:07.202Z,95650.63
2022-08-05T00:12:56.742Z,95643.53
2022-08-05T00:15:57.615Z,95652.63
2022-08-05T00:18:48.836Z,95649.06
2022-08-05T00:21:35.688Z,95641.53
2022-08-05T00:24:24.617Z,95647.47
2022-08-05T00:27:16.836Z,95649.84
2022-08-05T00:30:04.276Z,95647.88
2022-08-05T00:32:50.582Z,95648.28
2022-08-05T00:35:36.756Z,95648.25
2022-08-05T00:38:43.823Z,95651.41
2022-08-05T00:41:54.868Z,95650.63
2022-08-05T00:44:36.853Z,95649.06
2022-08-05T00:47:23.550Z,95645.91
2022-08-05T00:50:10.240Z,95637.22
2022-08-05T00:52:56.667Z,95645.50
2022-08-05T00:55:43.809Z,95639.97
2022-08-05T00:58:29.791Z,95643.91
2022-08-05T01:01:15.954Z,95636.81
2022-08-05T01:04:26.735Z,95642.34
2022-08-05T01:07:13.719Z,95635.59
2022-08-05T01:10:00.026Z,95638.34
2022-08-05T01:13:05.049Z,95634.41
2022-08-05T01:15:59.826Z,95637.19
2022-08-05T01:18:56.195Z,95634.81
2022-08-05T01:22:06.660Z,95635.56
2022-08-05T01:25:17.222Z,95636.75
2022-08-05T01:28:17.736Z,95635.59
2022-08-05T01:31:10.252Z,95644.28
2022-08-05T01:34:00.807Z,95635.19
2022-08-05T01:36:53.287Z,95634.81
2022-08-05T01:39:47.628Z,95641.50
2022-08-05T01:42:37.013Z,95634.00
2022-08-05T01:45:25.052Z,95637.16
2022-08-05T01:48:12.782Z,95639.53
2022-08-05T01:51:00.619Z,95634.00
2022-08-05T01:53:59.863Z,95637.97
2022-08-05T01:58:10.214Z,95633.22
2022-08-05T02:00:00.311Z,95621.38
2022-08-05T02:03:24.519Z,95641.88
2022-08-05T02:06:37.825Z,95637.13
2022-08-05T02:09:24.248Z,95626.09
2022-08-05T02:12:36.663Z,95627.69
2022-08-05T02:16:00.904Z,95634.78
2022-08-05T02:19:21.450Z,95631.63
2022-08-05T02:22:29.369Z,95639.13
2022-08-05T02:25:18.842Z,95633.19
2022-08-05T02:28:11.155Z,95636.38
2022-08-05T02:31:14.642Z,95624.53
2022-08-05T02:34:06.130Z,95630.03
2022-08-05T02:36:57.990Z,95629.63
2022-08-05T02:39:47.685Z,95632.00
2022-08-05T02:42:39.360Z,95626.50
2022-08-05T02:45:26.695Z,95626.88
2022-08-05T02:48:16.112Z,95625.28
2022-08-05T02:51:03.727Z,95617.78
2022-08-05T02:53:50.253Z,95612.66
2022-08-05T02:56:45.967Z,95613.44
2022-08-05T02:59:47.909Z,95622.91
2022-08-05T03:02:41.191Z,95630.41
2022-08-05T03:06:56.562Z,95634.72
2022-08-05T03:08:36.589Z,95613.41
2022-08-05T03:11:54.444Z,95616.56
2022-08-05T03:14:32.726Z,95624.44
2022-08-05T03:17:20.179Z,95618.13
2022-08-05T03:20:08.633Z,95612.63
2022-08-05T03:22:57.712Z,95621.31
2022-08-05T03:26:04.561Z,95613.81
2022-08-05T03:28:56.304Z,95616.56
2022-08-05T03:31:57.173Z,95614.97
2022-08-05T03:34:51.302Z,95619.72
2022-08-05T03:37:44.771Z,95628.00
2022-08-05T03:40:32.872Z,95618.91
2022-08-05T03:44:08.040Z,95623.66
2022-08-05T03:46:29.589Z,95625.25
2022-08-05T03:49:15.843Z,95616.97
2022-08-05T03:52:38.007Z,95623.25
2022-08-05T03:56:04.122Z,95618.91
2022-08-05T03:58:29.345Z,95613.41
2022-08-05T04:01:20.971Z,95618.91
2022-08-05T04:04:09.980Z,95635.47
2022-08-05T04:06:56.710Z,95626.78
2022-08-05T04:09:53.769Z,95628.78
2022-08-05T04:15:24.986Z,95622.84
2022-08-05T04:18:22.426Z,95624.44
2022-08-05T04:21:11.485Z,95628.38
2022-08-05T04:24:06.359Z,95620.47
2022-08-05T04:26:53.407Z,95626.41
2022-08-05T04:29:39.784Z,95616.16
2022-08-05T04:32:30.986Z,95622.84
2022-08-05T04:35:20.009Z,95626.00
2022-08-05T04:38:06.777Z,95618.13
2022-08-05T04:40:52.694Z,95615.78
2022-08-05T04:43:46.512Z,95617.34
2022-08-05T04:46:34.501Z,95621.31
2022-08-05T04:49:24.790Z,95619.72
2022-08-05T04:52:27.798Z,95624.44
2022-08-05T04:55:15.345Z,95621.69
2022-08-05T04:58:01.360Z,95615.78
2022-08-05T05:00:50.738Z,95616.59
2022-08-05T05:03:41.765Z,95618.91
2022-08-05T05:06:36.528Z,95618.91
2022-08-05T05:09:30.356Z,95612.63
2022-08-05T05:12:17.675Z,95617.38
2022-08-05T05:15:04.852Z,95609.84
2022-08-05T05:17:57.864Z,95613.41
2022-08-05T05:20:45.946Z,95613.41
2022-08-05T05:24:01.977Z,95606.31
2022-08-05T05:26:37.748Z,95604.72
2022-08-05T05:30:03.508Z,95598.41
2022-08-05T05:32:35.223Z,95607.91
2022-08-05T05:35:22.958Z,95597.66
2022-08-05T05:38:12.914Z,95612.66
2022-08-05T05:41:00.182Z,95603.16
2022-08-05T05:43:57.577Z,95601.59
2022-08-05T05:46:46.587Z,95603.97
2022-08-05T05:49:33.983Z,95595.28
2022-08-05T05:52:28.608Z,95600.03
2022-08-05T05:55:19.833Z,95606.38
2022-08-05T05:58:05.894Z,95605.56
2022-08-05T06:00:51.752Z,95605.56
2022-08-05T06:03:53.765Z,95600.06
2022-08-05T06:06:47.529Z,95619.81
2022-08-05T06:09:52.568Z,95608.75
2022-08-05T06:12:42.237Z,95609.13
2022-08-05T06:16:28.396Z,95584.66
2022-08-05T06:18:39.309Z,95609.53
2022-08-05T06:21:36.970Z,95612.69
2022-08-05T06:24:27.278Z,95613.88
2022-08-05T06:27:17.228Z,95607.22
2022-08-05T06:30:21.403Z,95607.59
2022-08-05T06:33:09.958Z,95611.16
2022-08-05T06:36:07.720Z,95616.69
2022-08-05T06:38:56.278Z,95613.91
2022-08-05T06:41:42.527Z,95617.47
2022-08-05T06:44:32.014Z,95615.09
2022-08-05T06:48:11.459Z,95608.78
2022-08-05T06:50:30.612Z,95622.59
2022-08-05T06:53:27.993Z,95611.94
2022-08-05T06:56:26.551Z,95609.94
2022-08-05T06:59:14.571Z,95613.50
2022-08-05T07:02:01.282Z,95601.66
2022-08-05T07:04:48.225Z,95610.72
2022-08-05T07:07:35.556Z,95612.69
2022-08-05T07:10:32.513Z,95598.09
2022-08-05T07:13:59.888Z,95604.78
2022-08-05T07:17:58.980Z,95606.75
2022-08-05T07:23:05.214Z,95596.91
2022-08-05T07:25:56.157Z,95593.72
2022-08-05T07:28:42.685Z,95593.72
2022-08-05T07:31:40.814Z,95584.63
2022-08-05T07:34:35.778Z,95593.69
2022-08-05T07:37:29.074Z,95588.16
2022-08-05T07:40:26.801Z,95580.25
2022-08-05T07:43:20.768Z,95587.34
2022-08-05T07:46:06.954Z,95579.84
2022-08-05T07:49:11.779Z,95576.25
2022-08-05T07:51:57.980Z,95593.63
2022-08-05T07:54:49.105Z,95588.91
2022-08-05T07:57:51.164Z,95583.34
2022-08-05T08:00:41.884Z,95588.84
2022-08-05T08:03:44.686Z,95578.56
2022-08-05T08:06:32.741Z,95580.16
2022-08-05T08:09:19.757Z,95579.31
2022-08-05T08:12:14.656Z,95575.75
2022-08-05T08:15:15.680Z,95584.84
2022-08-05T08:18:03.554Z,95587.97
2022-08-05T08:21:02.023Z,95578.88
2022-08-05T08:24:03.224Z,95574.53
2022-08-05T08:26:50.987Z,95572.16
2022-08-05T08:30:05.097Z,95575.28
2022-08-05T08:32:48.915Z,95570.91
2022-08-05T08:35:41.528Z,95573.63
2022-08-05T08:38:38.405Z,95579.94
2022-08-05T08:41:51.119Z,95572.78
2022-08-05T08:45:20.311Z,95573.53
2022-08-05T08:48:07.010Z,95567.94
2022-08-05T08:51:22.072Z,95571.88
2022-08-05T08:53:55.923Z,95566.28
2022-08-05T08:56:47.668Z,95567.03
2022-08-05T08:59:39.113Z,95566.59
2022-08-05T09:02:28.417Z,95561.84
2022-08-05T09:05:17.929Z,95561.41
2022-08-05T09:08:04.413Z,95550.69
2022-08-05T09:10:51.376Z,95548.69
2022-08-05T09:14:10.064Z,95548.59
2022-08-05T09:16:48.852Z,95545.44
2022-08-05T09:19:55.185Z,95543.81
2022-08-05T09:23:09.071Z,95534.25
2022-08-05T09:26:20.798Z,95531.47
2022-08-05T09:29:09.090Z,95528.63
2022-08-05T09:32:40.632Z,95517.50
2022-08-05T09:35:30.183Z,95522.19
2022-08-05T09:38:27.396Z,95524.53
2022-08-05T09:41:16.246Z,95522.09
2022-08-05T09:44:03.643Z,95513.41
2022-08-05T09:46:53.559Z,95514.16
2022-08-05T09:50:01.132Z,95520.81
2022-08-05T09:52:59.319Z,95509.31
2022-08-05T09:55:57.988Z,95516.00
2022-08-05T09:59:09.959Z,95514.38
2022-08-05T10:02:06.893Z,95506.06
2022-08-05T10:04:53.638Z,95510.78
2022-08-05T10:08:36.877Z,95503.66
2022-08-05T10:11:17.097Z,95495.81
2022-08-05T10:14:27.647Z,95503.63
2022-08-05T10:17:37.875Z,95492.47
2022-08-05T10:20:22.796Z,95500.72
2022-08-05T10:23:34.253Z,95487.22
2022-08-05T10:26:20.042Z,95483.59
2022-08-05T10:29:23.587Z,95489.09
2022-08-05T10:32:54.510Z,95476.38
2022-08-05T10:35:33.686Z,95473.25
2022-08-05T10:38:29.219Z,95475.53
2022-08-05T10:41:46.887Z,95486.03
2022-08-05T10:44:33.592Z,95468.78
2022-08-05T10:47:26.830Z,95468.22
2022-08-05T10:50:20.794Z,95467.53
2022-08-05T10:53:42.547Z,95463.28
2022-08-05T10:56:43.990Z,95455.75
2022-08-05T11:00:02.840Z,95458.75
2022-08-05T11:02:43.854Z,95460.19
2022-08-05T11:05:37.217Z,95454.47
2022-08-05T11:08:37.980Z,95445.53
2022-08-05T11:11:44.915Z,95451.66
2022-08-05T11:17:58.000Z,95442.50
2022-08-05T11:20:48.338Z,95444.66
2022-08-05T11:24:05.751Z,95448.41
2022-08-05T11:26:49.465Z,95439.91
2022-08-05T11:29:42.777Z,95433.44
2022-08-05T11:32:30.127Z,95443.13
2022-08-05T11:36:08.170Z,95426.66
2022-08-05T11:38:57.760Z,95428.44
2022-08-05T11:41:56.351Z,95415.59
2022-08-05T11:44:53.913Z,95421.34
2022-08-05T11:47:49.896Z,95410.53
2022-08-05T11:50:39.671Z,95402.38
2022-08-05T11:53:25.538Z,95412.50
2022-08-05T11:56:11.537Z,95413.91
2022-08-05T11:58:57.433Z,95404.72
2022-08-05T12:02:03.460Z,95415.19
2022-08-05T12:04:58.984Z,95401.09
2022-08-05T12:08:03.733Z,95396.63
2022-08-05T12:10:56.704Z,95399.31
2022-08-05T12:14:04.243Z,95394.53
2022-08-05T12:16:50.723Z,95393.31
2022-08-05T12:20:16.694Z,95393.66
2022-08-05T12:23:09.903Z,95397.16
2022-08-05T12:25:57.183Z,95383.94
2022-08-05T12:28:43.441Z,95377.84
2022-08-05T12:31:42.360Z,95377.66
2022-08-05T12:34:35.823Z,95379.06
2022-08-05T12:37:21.961Z,95381.25
2022-08-05T12:40:10.965Z,95374.56
2022-08-05T12:42:57.618Z,95360.09
2022-08-05T12:45:51.918Z,95367.19
2022-08-05T12:48:39.693Z,95355.31
2022-08-05T12:52:13.826Z,95366.47
2022-08-05T12:54:35.897Z,95358.38
2022-08-05T12:57:23.310Z,95358.78
2022-08-05T13:02:04.263Z,95355.09
2022-08-05T13:03:32.610Z,95353.06
2022-08-05T13:06:19.915Z,95351.84
2022-08-05T13:09:12.667Z,95352.84
2022-08-05T13:12:06.007Z,95345.19
2022-08-05T13:14:59.198Z,95339.06
2022-08-05T13:17:55.552Z,95341.84
2022-08-05T13:20:44.989Z,95338.63
2022-08-05T13:23:30.860Z,95335.84
2022-08-05T13:26:16.941Z,95325.84
2022-08-05T13:29:05.248Z,95322.97
2022-08-05T13:32:04.986Z,95323.81
2022-08-05T13:34:52.833Z,95313.19
2022-08-05T13:37:38.909Z,95316.28
2022-08-05T13:40:48.196Z,95323.47
2022-08-05T13:43:44.466Z,95316.44
2022-08-05T13:47:01.704Z,95317.31
2022-08-05T13:49:46.597Z,95307.84
2022-08-05T13:52:35.244Z,95321.59
2022-08-05T13:55:40.759Z,95316.53
2022-08-05T13:58:30.544Z,95313.72
2022-08-05T14:01:17.959Z,95307.81
2022-08-05T14:04:26.649Z,95306.88
2022-08-05T14:07:25.634Z,95308.66
2022-08-05T14:10:28.603Z,95302.53
2022-08-05T14:13:15.489Z,95297.75
2022-08-05T14:16:07.546Z,95302.47
2022-08-05T14:18:57.663Z,95303.22
2022-08-05T14:22:09.404Z,95299.31
2022-08-05T14:24:56.823Z,95292.56
2022-08-05T14:27:47.568Z,95289.19
2022-08-05T14:30:33.380Z,95284.63
2022-08-05T14:33:22.639Z,95287.50
2022-08-05T14:36:09.221Z,95281.66
2022-08-05T14:38:57.169Z,95282.97
2022-08-05T14:42:02.322Z,95287.81
2022-08-05T14:44:58.253Z,95282.16
2022-08-05T14:48:03.393Z,95286.88
2022-08-05T14:50:53.262Z,95280.78
2022-08-05T14:53:44.166Z,95277.38
2022-08-05T14:56:31.608Z,95274.66
2022-08-05T14:59:22.207Z,95267.03
2022-08-05T15:02:15.032Z,95269.00
2022-08-05T15:05:02.190Z,95280.97
2022-08-05T15:08:10.880Z,95278.94
2022-08-05T15:11:03.131Z,95271.84
2022-08-05T15:13:50.156Z,95272.72
2022-08-05T15:16:36.532Z,95266.38
2022-08-05T15:19:23.993Z,95265.69
2022-08-05T15:22:10.114Z,95257.34
2022-08-05T15:24:59.293Z,95254.72
2022-08-05T15:27:51.944Z,95254.72
2022-08-05T15:30:39.367Z,95256.25
2022-08-05T15:34:18.763Z,95251.31
2022-08-05T15:36:32.351Z,95249.41
2022-08-05T15:41:00.838Z,95249.97
2022-08-05T15:42:55.179Z,95244.69
2022-08-05T15:45:38.277Z,95240.78
2022-08-05T15:48:26.122Z,95245.47
2022-08-05T15:51:12.242Z,95242.34
2022-08-05T15:53:58.954Z,95248.16
2022-08-05T15:56:45.257Z,95236.25
2022-08-05T15:59:34.134Z,95241.56
2022-08-05T16:02:25.535Z,95242.06
2022-08-05T16:05:13.929Z,95234.22
2022-08-05T16:08:01.256Z,95231.97
2022-08-05T16:10:47.164Z,95234.63
2022-08-05T16:13:34.956Z,95234.91
2022-08-05T16:16:25.257Z,95230.81
2022-08-05T16:23:25.934Z,95231.09
2022-08-05T16:26:26.440Z,95231.31
2022-08-05T16:29:12.941Z,95232.03
2022-08-05T16:32:00.766Z,95234.28
2022-08-05T16:34:46.533Z,95238.06
2022-08-05T16:38:03.685Z,95233.09
2022-08-05T16:40:47.686Z,95234.03
2022-08-05T16:43:39.117Z,95238.38
2022-08-05T16:46:25.153Z,95231.19
2022-08-05T16:49:13.604Z,95235.78
2022-08-05T16:52:00.190Z,95242.63
2022-08-05T16:54:48.946Z,95247.28
2022-08-05T16:57:53.487Z,95240.34
2022-08-05T17:00:42.281Z,95249.94
2022-08-05T17:03:32.943Z,95246.44
2022-08-05T17:06:20.142Z,95244.50
2022-08-05T17:09:10.444Z,95251.63
2022-08-05T17:11:59.234Z,95248.09
2022-08-05T17:14:46.462Z,95256.56
2022-08-05T17:17:42.508Z,95261.31
2022-08-05T17:20:31.275Z,95262.47
2022-08-05T17:24:04.915Z,95274.06
2022-08-05T17:26:23.577Z,95281.56
2022-08-05T17:29:10.074Z,95274.00
2022-08-05T17:31:56.860Z,95275.13
2022-08-05T17:34:49.164Z,95276.97
2022-08-05T17:37:40.040Z,95263.78
2022-08-05T17:40:31.579Z,95271.16
2022-08-05T17:43:17.682Z,95275.41
2022-08-05T17:46:30.517Z,95279.66
2022-08-05T17:49:17.316Z,95282.38
2022-08-05T17:52:05.118Z,95271.06
2022-08-05T17:54:52.902Z,95275.91
2022-08-05T17:57:40.320Z,95289.50
2022-08-05T18:00:45.146Z,95288.13
2022-08-05T18:03:59.112Z,95289.22
2022-08-05T18:06:51.919Z,95293.47
2022-08-05T18:09:58.839Z,95291.34
2022-08-05T18:12:46.947Z,95301.16
2022-08-05T18:15:34.645Z,95294.09
2022-08-05T18:18:26.915Z,95295.88
2022-08-05T18:21:21.043Z,95302.00
2022-08-05T18:24:16.669Z,95312.09
2022-08-05T18:27:04.203Z,95308.28
2022-08-05T18:29:59.014Z,95302.91
2022-08-05T18:32:53.394Z,95310.91
2022-08-05T18:36:00.009Z,95312.00
2022-08-05T18:38:50.601Z,95312.19
2022-08-05T18:41:58.227Z,95316.72
2022-08-05T18:44:55.429Z,95327.72
2022-08-05T18:47:51.440Z,95318.38
2022-08-05T18:52:05.361Z,95315.34
2022-08-05T18:54:12.882Z,95312.47
2022-08-05T18:57:01.468Z,95319.72
2022-08-05T19:00:03.145Z,95329.44
2022-08-05T19:02:52.021Z,95335.28
2022-08-05T19:06:13.251Z,95329.81
2022-08-05T19:08:44.404Z,95330.81
2022-08-05T19:11:36.991Z,95342.03
2022-08-05T19:15:00.300Z,95338.28
2022-08-05T19:17:59.385Z,95343.19
2022-08-05T19:20:55.940Z,95344.16
2022-08-05T19:24:07.341Z,95345.09
2022-08-05T19:33:35.937Z,95333.91
2022-08-05T19:47:55.835Z,95349.38
2022-08-05T19:51:06.150Z,95314.53
2022-08-05T19:54:27.029Z,95327.63
2022-08-05T19:57:48.955Z,95314.78
2022-08-05T20:00:50.696Z,95343.53
2022-08-05T20:04:05.208Z,95333.41
2022-08-05T20:06:55.910Z,95315.28
2022-08-05T20:09:53.776Z,95353.50
2022-08-05T20:13:59.050Z,95350.72
2022-08-05T20:16:55.661Z,95326.53
2022-08-05T20:19:45.926Z,95335.22
2022-08-05T20:22:32.335Z,95343.06
2022-08-05T20:38:06.670Z,95346.81
2022-08-05T20:40:51.262Z,95350.41
2022-08-05T20:43:59.928Z,95348.53
2022-08-05T20:46:45.354Z,95345.44
2022-08-05T20:49:33.215Z,95354.97
2022-08-05T20:52:35.388Z,95351.94
2022-08-05T20:55:56.576Z,95351.94
2022-08-05T20:58:29.074Z,95354.00
2022-08-05T21:01:16.158Z,95354.47
2022-08-05T21:04:02.451Z,95349.03
2022-08-05T21:06:50.694Z,95342.00
2022-08-05T21:09:50.106Z,95357.34
2022-08-05T21:13:08.926Z,95347.19
2022-08-05T21:15:56.795Z,95361.06
2022-08-05T21:18:45.043Z,95354.78
2022-08-05T21:21:39.750Z,95354.03
2022-08-05T21:24:41.131Z,95357.19
2022-08-05T21:27:28.461Z,95353.31
2022-08-05T21:30:28.446Z,95356.50
2022-08-05T21:33:22.287Z,95358.56
2022-08-05T21:36:09.706Z,95355.88
2022-08-05T21:38:56.193Z,95364.56
2022-08-05T21:41:52.619Z,95362.22
2022-08-05T21:44:43.114Z,95368.22
2022-08-05T21:47:56.774Z,95363.91
2022-08-05T21:50:53.078Z,95370.28
2022-08-05T21:53:40.350Z,95368.69
2022-08-05T21:56:26.325Z,95369.59
2022-08-05T21:59:24.402Z,95371.16
2022-08-05T22:02:12.206Z,95364.06
2022-08-05T22:04:59.953Z,95368.81
2022-08-05T22:07:58.517Z,95369.25
2022-08-05T22:10:45.770Z,95372.47
2022-08-05T22:14:19.693Z,95375.25
2022-08-05T22:16:51.760Z,95368.97
2022-08-05T22:20:03.576Z,95375.34
2022-08-05T22:23:16.659Z,95367.44
2022-08-05T22:26:22.701Z,95370.63
2022-08-05T22:29:09.984Z,95368.25
2022-08-05T22:31:59.537Z,95363.56
2022-08-05T22:34:46.057Z,95358.84
2022-08-05T22:37:58.860Z,95361.63
2022-08-05T22:40:39.137Z,95353.72
2022-08-05T22:43:36.674Z,95348.56
2022-08-05T22:46:25.719Z,95362.03
2022-08-05T22:50:18.504Z,95355.78
2022-08-05T22:52:30.457Z,95355.00
2022-08-05T22:55:21.152Z,95358.59
2022-08-05T22:58:07.650Z,95359.38
2022-08-05T23:00:58.005Z,95363.00
2022-08-05T23:03:57.590Z,95367.75
2022-08-05T23:06:47.785Z,95368.19
2022-08-05T23:09:58.488Z,95370.16
2022-08-05T23:12:43.806Z,95365.88
2022-08-05T23:15:34.852Z,95367.88
2022-08-05T23:18:22.928Z,95363.97
2022-08-05T23:21:10.228Z,95358.50
2022-08-05T23:23:56.290Z,95361.28
2022-08-05T23:26:42.375Z,95365.66
2022-08-05T23:29:30.169Z,95362.50
2022-08-05T23:32:22.691Z,95367.66
2022-08-05T23:35:09.235Z,95361.00
2022-08-05T23:37:54.926Z,95362.59
2022-08-05T23:40:42.304Z,95366.97
2022-08-05T23:44:03.225Z,95350.78
2022-08-05T23:46:43.899Z,95357.94
2022-08-05T23:49:34.122Z,95361.50
2022-08-05T23:52:35.743Z,95355.59
2022-08-05T23:55:22.134Z,95353.63
2022-08-05T23:58:31.424Z,95351.66
